Airfield :
LOGIN :

Register | Disclaimer

   EN    FR    IT 

 










Legend :    VFR   Marginal VFR   IFR   Intensive IFR   Very Intensive IFR
Visi :
Ceiling :
>= 8 km
>= 3000ft
5 to 8 km
1000 to 3000 ft
1500m to 5 km
500 to 1000 ft
800 to 1500m
200 to 500 ft
< 800m
< 200 ft
Symbols :   Thunderstorms  Fog  Heavy snow  Heavy precipitations  Wind > 20 kt
SIGMETs :     Misc.  Thunderstorms  Icing  Turbulence  Mountain Waves  Volcanic Ashes






- Airport Elevation : 220 ft
- IATA code : CWL


EGFF - Cardiff Rhoose

CURRENT METAR :
  • 132350Z AUTO 14007KT 9999 FEW040 12/10 Q1009

EXPIRED METARs :
  • 132320Z AUTO 19006KT 9999 NCD 12/10 Q1009
  • 132250Z AUTO 19003KT 9999 NCD 11/10 Q1009
  • 132220Z AUTO VRB03KT 9999 NCD 12/10 Q1009
  • 132150Z AUTO 21005KT 170V240 9999 NCD 12/10 Q1009
  • 132120Z AUTO 18004KT 9999 NCD 12/10 Q1009
  • 132050Z AUTO 23004KT 9999 NCD 12/10 Q1009

TAF TAF EGFF
Valid from the 14 at 00:00 until the 15 at 00:00 UTC


132301Z 1400/1424 VRB04KT 9999 SCT030
BECMG 1406/1409 10012KT
BECMG 1409/1412 5000 -RA FEW003 BKN008
TEMPO 1409/1421 3000 RA BR BKN003
BECMG 1412/1415 VRB04KT
TEMPO 1421/1424 9999 NSW SCT008
ATIS : +44 1446 729 319



MET'MAP, your aeronautical weather chart ! - Copyright ORBIFLY December 2007 - Disclaimer

ORBIFLY MET'MAP TEAM :

Programming & Development : Alexandra Zaïnal
Concept & Development : Baudouin d'Aumeries
Co-Development & Prog : Marc-Olivier Méhu
Technical & hardware support : Manuel Goepfert

Contact : metmap@orbifly.com




SOURCES & CREDITS :

   NOAA